Terminal Aerodrome Forecast
Issued by NWS

Home | Current Version | Previous Version | Text Only | Print | Product List | Glossary On
Versions: 1 2 3 4 5 6 7 8 9 10 11 12 13 14 15 16 17 18 19 20 21 22 23 24 25 26 27 28 29 30
000
FTAK31 PAFA 241739
TAFATA
TAF
PATA 241739Z 2418/2518 06003KT P6SM BKN020 OVC040
     FM241900 26008G15KT P6SM VCSH SCT050 BKN090
     FM250400 26005KT P6SM VCSH BKN050 OVC090
     FM250800 26005KT 5SM -SHRA BKN025 OVC050
     FM251000 26005KT 5SM -SHRA BR BKN015 OVC025=

USA.gov is the U.S. government's official web portal to all federal, state and local government web resources and services.